createdAt,value
2018-12-06T00:03:46.633Z,3.40
2018-12-06T00:13:47.894Z,3.40
2018-12-06T00:23:49.158Z,3.30
2018-12-06T00:33:51.198Z,3.20
2018-12-06T00:43:52.695Z,3.20
2018-12-06T00:53:53.942Z,3.50
2018-12-06T01:03:55.217Z,3.50
2018-12-06T01:13:56.482Z,3.50
2018-12-06T01:23:57.728Z,3.40
2018-12-06T01:33:58.996Z,3.30
2018-12-06T01:44:00.265Z,3.10
2018-12-06T01:54:01.549Z,3.10
2018-12-06T02:04:03.817Z,3.10
2018-12-06T02:14:05.085Z,3.10
2018-12-06T02:24:06.353Z,3.00
2018-12-06T02:34:08.389Z,2.80
2018-12-06T02:44:09.665Z,2.80
2018-12-06T02:54:11.714Z,2.80
2018-12-06T03:04:12.987Z,2.70
2018-12-06T03:14:14.232Z,2.80
2018-12-06T03:24:15.497Z,2.70
2018-12-06T03:34:16.774Z,3.00
2018-12-06T03:44:18.033Z,3.10
2018-12-06T03:54:19.313Z,3.00
2018-12-06T04:04:20.574Z,3.00
2018-12-06T04:14:22.066Z,3.00
2018-12-06T04:34:30.551Z,3.20
2018-12-06T04:44:31.794Z,3.10
2018-12-06T04:54:33.040Z,2.90
2018-12-06T05:04:34.306Z,3.00
2018-12-06T05:14:35.549Z,3.10
2018-12-06T11:34:19.286Z,5.00
2018-12-06T11:44:20.530Z,5.10
2018-12-06T11:54:21.783Z,5.00
2018-12-06T12:04:23.032Z,4.90
2018-12-06T12:14:25.067Z,5.00
2018-12-06T12:24:26.336Z,5.00
2018-12-06T12:34:27.599Z,5.20
2018-12-06T12:44:28.886Z,5.30
2018-12-06T12:54:30.161Z,5.10
2018-12-06T13:04:31.431Z,5.00
2018-12-06T13:14:33.476Z,5.10
2018-12-06T13:24:35.062Z,5.10
2018-12-06T13:44:44.061Z,4.80
2018-12-06T13:54:45.301Z,4.80
2018-12-06T14:04:46.637Z,4.60
2018-12-06T14:14:47.915Z,4.70
2018-12-06T14:24:49.241Z,4.70
2018-12-06T14:34:50.509Z,4.90
2018-12-06T14:44:51.777Z,4.70
2018-12-06T14:54:53.797Z,4.70
2018-12-06T15:04:55.073Z,4.70
2018-12-06T15:14:57.120Z,4.40
2018-12-06T15:24:58.384Z,4.40
2018-12-06T15:35:00.426Z,4.40
2018-12-06T15:45:01.690Z,4.40
2018-12-06T16:15:21.118Z,3.50
2018-12-06T16:55:43.521Z,3.80
2018-12-06T17:05:44.789Z,3.90
2018-12-06T17:15:46.092Z,4.00
